Cleveland, OH (44130)

8:37 PM EDT on August 27, 2016 (GMT -0400)
Brook Park | | Change Station

Elev 832 ft 41.39 °N, 81.79 °W | Updated 12 seconds ago

Light Thunderstorms and Rain
Light Thunderstorm Rain
73.7 °F
Feels Like 72 °F
N
0.8
Wind Variable Wind from East
Gusts 4.6 mph

Today
High -- | Low -- °F
--% Chance of Precip.
Yesterday
High -- | Low -- °F
Precip. -- in
Pressure 30.17 in
Visibility 8.0 miles
Clouds Scattered Clouds 5500 ft
Mostly Cloudy 9500 ft
Overcast 13000 ft
Heat Index 72 °F
Dew Point 71 °F
Humidity 91%
Rainfall 0.02 in
Snow Depth Not available.
6:48 AM 8:07 PM
Waning Crescent, 20% visible
METAR KCLE 272351Z 25006KT 8SM -TSRA SCT055CB BKN095 OVC130 24/21 A3018 RMK AO2 RAB33 TSB07 SLP216 OCNL LTGICCG ALQDS AND OHD TS ALQDS AND OHD MOV NE P0001 60001 T02440211 10339 20244 53021
Pressure 30.17 in
Visibility 8.0 miles
Clouds Scattered Clouds 5500 ft
Mostly Cloudy 9500 ft
Overcast 13000 ft
Heat Index 72 °F
Dew Point 71 °F
Humidity 91%
Rainfall 0.02 in
Snow Depth Not available.
6:48 AM 8:07 PM
Waning Crescent, 20% visible
METAR KCLE 272351Z 25006KT 8SM -TSRA SCT055CB BKN095 OVC130 24/21 A3018 RMK AO2 RAB33 TSB07 SLP216 OCNL LTGICCG ALQDS AND OHD TS ALQDS AND OHD MOV NE P0001 60001 T02440211 10339 20244 53021

10-Day Weather Forecast

Almanac

Astronomy

Aug. 27, 2016 Rise Set
Actual Time
Civil Twilight
Nautical Twilight
Astronomical Twilight
Moon
Length of Visible Light
Length of Day
Tomorrow will be .
, % of the Moon is Illuminated

Today's Extremes

State Highs State Lows

Community

WunderPhotos

Upload Photos

1,935,475 photos uploaded!

WunderBlog® & News

Nearby

Air Quality

  Air Quality AQ Index Pollutant
Not available.

Snow Depth

Station Depth Elevation

Earthquake Activity

City Distance Mag. Time & Date
Minimum magnitude displayed is 2.5.

Coastal Water Temperatures

Place Temperature

Stations

Nearby Weather Stations

Station Location Temp. Windchill Dew Point Humidity Wind Precip. Elev Updated Type
                   

Watches & Warnings

There are currently no watches in effect.